sensor_id;sensor_type;location;lat;lon;timestamp;P1;durP1;ratioP1;P2;durP2;ratioP2
65717;SDS011;52445;52.466;-1.016;2023-03-01T00:00:48;2.35;;;0.60;;
65717;SDS011;52445;52.466;-1.016;2023-03-01T00:03:15;0.55;;;0.32;;
65717;SDS011;52445;52.466;-1.016;2023-03-01T00:05:43;2.80;;;0.57;;
65717;SDS011;52445;52.466;-1.016;2023-03-01T00:08:11;1.00;;;0.88;;
65717;SDS011;52445;52.466;-1.016;2023-03-01T00:10:38;2.17;;;0.77;;
65717;SDS011;52445;52.466;-1.016;2023-03-01T00:13:05;1.80;;;0.82;;
65717;SDS011;52445;52.466;-1.016;2023-03-01T00:15:32;1.83;;;0.75;;
65717;SDS011;52445;52.466;-1.016;2023-03-01T00:17:58;1.40;;;0.40;;
65717;SDS011;52445;52.466;-1.016;2023-03-01T00:20:25;1.35;;;0.88;;
65717;SDS011;52445;52.466;-1.016;2023-03-01T00:22:51;2.35;;;0.63;;
65717;SDS011;52445;52.466;-1.016;2023-03-01T00:25:18;2.15;;;0.57;;
65717;SDS011;52445;52.466;-1.016;2023-03-01T00:27:44;2.42;;;0.45;;
65717;SDS011;52445;52.466;-1.016;2023-03-01T00:30:13;1.00;;;0.45;;
65717;SDS011;52445;52.466;-1.016;2023-03-01T00:32:40;2.25;;;0.50;;
65717;SDS011;52445;52.466;-1.016;2023-03-01T00:35:07;1.92;;;1.00;;
65717;SDS011;52445;52.466;-1.016;2023-03-01T00:37:34;0.98;;;0.57;;
65717;SDS011;52445;52.466;-1.016;2023-03-01T00:40:00;3.33;;;1.13;;
65717;SDS011;52445;52.466;-1.016;2023-03-01T00:42:27;3.03;;;0.77;;
65717;SDS011;52445;52.466;-1.016;2023-03-01T00:44:53;1.05;;;0.65;;
65717;SDS011;52445;52.466;-1.016;2023-03-01T00:47:20;2.10;;;0.50;;
65717;SDS011;52445;52.466;-1.016;2023-03-01T00:49:46;3.70;;;0.60;;
65717;SDS011;52445;52.466;-1.016;2023-03-01T00:52:13;1.73;;;0.77;;
65717;SDS011;52445;52.466;-1.016;2023-03-01T00:54:39;0.70;;;0.70;;
65717;SDS011;52445;52.466;-1.016;2023-03-01T01:00:20;0.60;;;0.52;;
65717;SDS011;52445;52.466;-1.016;2023-03-01T01:02:47;3.03;;;0.47;;
65717;SDS011;52445;52.466;-1.016;2023-03-01T01:05:14;2.20;;;0.60;;
65717;SDS011;52445;52.466;-1.016;2023-03-01T01:07:41;1.85;;;1.20;;
65717;SDS011;52445;52.466;-1.016;2023-03-01T01:10:07;0.85;;;0.45;;
65717;SDS011;52445;52.466;-1.016;2023-03-01T01:12:34;1.10;;;0.82;;
65717;SDS011;52445;52.466;-1.016;2023-03-01T01:15:01;1.90;;;0.60;;
65717;SDS011;52445;52.466;-1.016;2023-03-01T01:17:28;1.00;;;0.70;;
65717;SDS011;52445;52.466;-1.016;2023-03-01T01:19:54;1.10;;;0.40;;
65717;SDS011;52445;52.466;-1.016;2023-03-01T01:22:21;1.77;;;0.40;;
65717;SDS011;52445;52.466;-1.016;2023-03-01T01:24:47;1.63;;;0.55;;
65717;SDS011;52445;52.466;-1.016;2023-03-01T01:27:14;1.33;;;1.10;;
65717;SDS011;52445;52.466;-1.016;2023-03-01T01:29:41;2.80;;;0.98;;
65717;SDS011;52445;52.466;-1.016;2023-03-01T01:32:08;1.10;;;0.70;;
65717;SDS011;52445;52.466;-1.016;2023-03-01T01:34:34;2.72;;;0.82;;
65717;SDS011;52445;52.466;-1.016;2023-03-01T01:37:01;3.17;;;0.65;;
65717;SDS011;52445;52.466;-1.016;2023-03-01T01:39:29;2.75;;;0.85;;
65717;SDS011;52445;52.466;-1.016;2023-03-01T01:41:55;2.25;;;0.90;;
65717;SDS011;52445;52.466;-1.016;2023-03-01T01:44:24;3.65;;;0.70;;
65717;SDS011;52445;52.466;-1.016;2023-03-01T01:46:57;1.17;;;0.80;;
65717;SDS011;52445;52.466;-1.016;2023-03-01T01:52:06;0.98;;;0.60;;
65717;SDS011;52445;52.466;-1.016;2023-03-01T01:54:45;2.70;;;1.23;;
65717;SDS011;52445;52.466;-1.016;2023-03-01T01:57:33;5.53;;;1.90;;
65717;SDS011;52445;52.466;-1.016;2023-03-01T02:00:06;1.95;;;1.83;;
65717;SDS011;52445;52.466;-1.016;2023-03-01T02:02:36;3.83;;;1.05;;
65717;SDS011;52445;52.466;-1.016;2023-03-01T02:05:08;2.35;;;1.27;;
65717;SDS011;52445;52.466;-1.016;2023-03-01T02:07:40;1.95;;;1.75;;
65717;SDS011;52445;52.466;-1.016;2023-03-01T02:10:07;5.97;;;1.38;;
65717;SDS011;52445;52.466;-1.016;2023-03-01T02:12:34;2.95;;;1.45;;
65717;SDS011;52445;52.466;-1.016;2023-03-01T02:15:02;1.50;;;1.40;;
65717;SDS011;52445;52.466;-1.016;2023-03-01T02:17:29;2.40;;;1.30;;
65717;SDS011;52445;52.466;-1.016;2023-03-01T02:22:31;2.75;;;1.00;;
65717;SDS011;52445;52.466;-1.016;2023-03-01T02:27:38;3.35;;;2.08;;
65717;SDS011;52445;52.466;-1.016;2023-03-01T02:30:13;2.10;;;1.73;;
65717;SDS011;52445;52.466;-1.016;2023-03-01T02:32:40;5.90;;;2.08;;
65717;SDS011;52445;52.466;-1.016;2023-03-01T02:35:09;4.57;;;2.55;;
65717;SDS011;52445;52.466;-1.016;2023-03-01T02:37:38;2.33;;;1.85;;
65717;SDS011;52445;52.466;-1.016;2023-03-01T02:40:08;2.72;;;2.53;;
65717;SDS011;52445;52.466;-1.016;2023-03-01T02:42:40;5.25;;;2.05;;
65717;SDS011;52445;52.466;-1.016;2023-03-01T02:45:15;2.40;;;1.23;;
65717;SDS011;52445;52.466;-1.016;2023-03-01T02:47:41;4.65;;;2.08;;
65717;SDS011;52445;52.466;-1.016;2023-03-01T02:53:09;2.42;;;0.40;;
65717;SDS011;52445;52.466;-1.016;2023-03-01T02:55:41;2.80;;;1.30;;
65717;SDS011;52445;52.466;-1.016;2023-03-01T02:58:08;3.20;;;0.80;;
65717;SDS011;52445;52.466;-1.016;2023-03-01T03:00:36;1.08;;;0.73;;
65717;SDS011;52445;52.466;-1.016;2023-03-01T03:03:06;1.38;;;0.65;;
65717;SDS011;52445;52.466;-1.016;2023-03-01T03:05:33;3.15;;;0.70;;
65717;SDS011;52445;52.466;-1.016;2023-03-01T03:08:01;1.73;;;1.15;;
65717;SDS011;52445;52.466;-1.016;2023-03-01T03:10:31;2.03;;;1.38;;
65717;SDS011;52445;52.466;-1.016;2023-03-01T03:13:01;2.20;;;0.75;;
65717;SDS011;52445;52.466;-1.016;2023-03-01T03:15:29;3.25;;;0.80;;
65717;SDS011;52445;52.466;-1.016;2023-03-01T03:17:56;3.92;;;0.40;;
65717;SDS011;52445;52.466;-1.016;2023-03-01T03:20:25;4.13;;;1.10;;
65717;SDS011;52445;52.466;-1.016;2023-03-01T03:22:55;6.22;;;0.88;;
65717;SDS011;52445;52.466;-1.016;2023-03-01T03:25:24;3.25;;;1.02;;
65717;SDS011;52445;52.466;-1.016;2023-03-01T03:27:52;4.95;;;0.80;;
65717;SDS011;52445;52.466;-1.016;2023-03-01T03:30:25;3.53;;;0.63;;
65717;SDS011;52445;52.466;-1.016;2023-03-01T03:32:55;4.40;;;0.55;;
65717;SDS011;52445;52.466;-1.016;2023-03-01T03:35:24;7.20;;;1.05;;
65717;SDS011;52445;52.466;-1.016;2023-03-01T03:37:57;4.90;;;1.05;;
65717;SDS011;52445;52.466;-1.016;2023-03-01T03:43:07;4.45;;;1.80;;
65717;SDS011;52445;52.466;-1.016;2023-03-01T03:45:35;2.38;;;2.25;;
65717;SDS011;52445;52.466;-1.016;2023-03-01T03:48:03;3.20;;;2.20;;
65717;SDS011;52445;52.466;-1.016;2023-03-01T03:50:31;5.25;;;1.55;;
65717;SDS011;52445;52.466;-1.016;2023-03-01T03:53:00;6.20;;;2.45;;
65717;SDS011;52445;52.466;-1.016;2023-03-01T03:55:28;7.07;;;1.80;;
65717;SDS011;52445;52.466;-1.016;2023-03-01T03:57:57;5.07;;;1.88;;
65717;SDS011;52445;52.466;-1.016;2023-03-01T04:00:28;1.73;;;1.63;;
65717;SDS011;52445;52.466;-1.016;2023-03-01T04:02:55;2.25;;;2.05;;
65717;SDS011;52445;52.466;-1.016;2023-03-01T04:05:22;2.65;;;1.30;;
65717;SDS011;52445;52.466;-1.016;2023-03-01T04:07:49;3.15;;;2.80;;
65717;SDS011;52445;52.466;-1.016;2023-03-01T04:10:28;1.95;;;1.85;;
65717;SDS011;52445;52.466;-1.016;2023-03-01T04:12:56;4.35;;;1.42;;
65717;SDS011;52445;52.466;-1.016;2023-03-01T04:15:23;4.07;;;2.03;;
65717;SDS011;52445;52.466;-1.016;2023-03-01T04:17:51;1.95;;;1.75;;
65717;SDS011;52445;52.466;-1.016;2023-03-01T04:20:20;1.77;;;1.67;;
65717;SDS011;52445;52.466;-1.016;2023-03-01T04:22:52;2.70;;;1.45;;
65717;SDS011;52445;52.466;-1.016;2023-03-01T04:25:23;4.45;;;2.25;;
65717;SDS011;52445;52.466;-1.016;2023-03-01T04:27:50;2.63;;;0.22;;
65717;SDS011;52445;52.466;-1.016;2023-03-01T04:30:17;4.25;;;2.38;;
65717;SDS011;52445;52.466;-1.016;2023-03-01T04:32:43;1.90;;;1.73;;
65717;SDS011;52445;52.466;-1.016;2023-03-01T04:35:10;2.40;;;2.15;;
65717;SDS011;52445;52.466;-1.016;2023-03-01T04:37:37;5.03;;;2.33;;
65717;SDS011;52445;52.466;-1.016;2023-03-01T04:40:03;2.03;;;1.90;;
65717;SDS011;52445;52.466;-1.016;2023-03-01T04:42:39;2.53;;;1.67;;
65717;SDS011;52445;52.466;-1.016;2023-03-01T04:45:05;9.50;;;2.38;;
65717;SDS011;52445;52.466;-1.016;2023-03-01T04:47:40;2.38;;;1.73;;
65717;SDS011;52445;52.466;-1.016;2023-03-01T04:50:07;3.88;;;2.50;;
65717;SDS011;52445;52.466;-1.016;2023-03-01T04:52:35;2.40;;;1.27;;
65717;SDS011;52445;52.466;-1.016;2023-03-01T04:55:02;3.05;;;2.13;;
65717;SDS011;52445;52.466;-1.016;2023-03-01T04:57:30;6.68;;;2.70;;
65717;SDS011;52445;52.466;-1.016;2023-03-01T04:59:57;2.25;;;1.67;;
65717;SDS011;52445;52.466;-1.016;2023-03-01T05:02:24;2.15;;;1.67;;
65717;SDS011;52445;52.466;-1.016;2023-03-01T05:04:50;1.48;;;1.25;;
65717;SDS011;52445;52.466;-1.016;2023-03-01T05:07:17;4.63;;;1.95;;
65717;SDS011;52445;52.466;-1.016;2023-03-01T05:09:45;2.60;;;2.40;;
65717;SDS011;52445;52.466;-1.016;2023-03-01T05:12:13;2.00;;;1.80;;
65717;SDS011;52445;52.466;-1.016;2023-03-01T05:14:41;3.47;;;1.58;;
65717;SDS011;52445;52.466;-1.016;2023-03-01T05:17:08;1.95;;;1.60;;
65717;SDS011;52445;52.466;-1.016;2023-03-01T05:19:34;2.88;;;2.40;;
65717;SDS011;52445;52.466;-1.016;2023-03-01T05:22:01;6.35;;;1.98;;
65717;SDS011;52445;52.466;-1.016;2023-03-01T05:24:28;3.50;;;2.00;;
65717;SDS011;52445;52.466;-1.016;2023-03-01T05:26:56;4.30;;;1.58;;
65717;SDS011;52445;52.466;-1.016;2023-03-01T05:29:23;2.72;;;2.08;;
65717;SDS011;52445;52.466;-1.016;2023-03-01T05:31:52;2.92;;;1.90;;
65717;SDS011;52445;52.466;-1.016;2023-03-01T05:34:29;4.15;;;2.13;;
65717;SDS011;52445;52.466;-1.016;2023-03-01T05:36:58;2.65;;;1.98;;
65717;SDS011;52445;52.466;-1.016;2023-03-01T05:39:25;6.68;;;2.58;;
65717;SDS011;52445;52.466;-1.016;2023-03-01T05:41:54;2.22;;;2.03;;
65717;SDS011;52445;52.466;-1.016;2023-03-01T05:44:22;5.20;;;2.50;;
65717;SDS011;52445;52.466;-1.016;2023-03-01T05:46:49;3.40;;;1.75;;
65717;SDS011;52445;52.466;-1.016;2023-03-01T05:49:16;2.00;;;1.55;;
65717;SDS011;52445;52.466;-1.016;2023-03-01T05:51:47;6.25;;;1.95;;
65717;SDS011;52445;52.466;-1.016;2023-03-01T05:54:15;2.88;;;0.73;;
65717;SDS011;52445;52.466;-1.016;2023-03-01T05:56:42;2.17;;;2.00;;
65717;SDS011;52445;52.466;-1.016;2023-03-01T05:59:09;2.53;;;2.33;;
65717;SDS011;52445;52.466;-1.016;2023-03-01T06:01:36;4.95;;;2.25;;
65717;SDS011;52445;52.466;-1.016;2023-03-01T06:04:03;6.40;;;2.15;;
65717;SDS011;52445;52.466;-1.016;2023-03-01T06:06:33;5.78;;;2.17;;
65717;SDS011;52445;52.466;-1.016;2023-03-01T06:09:01;2.08;;;1.83;;
65717;SDS011;52445;52.466;-1.016;2023-03-01T06:11:27;3.42;;;2.13;;
65717;SDS011;52445;52.466;-1.016;2023-03-01T06:13:54;3.08;;;2.22;;
65717;SDS011;52445;52.466;-1.016;2023-03-01T06:16:20;2.55;;;2.15;;
65717;SDS011;52445;52.466;-1.016;2023-03-01T06:18:47;2.13;;;1.85;;
65717;SDS011;52445;52.466;-1.016;2023-03-01T06:21:14;2.85;;;1.77;;
65717;SDS011;52445;52.466;-1.016;2023-03-01T06:23:40;1.23;;;0.50;;
65717;SDS011;52445;52.466;-1.016;2023-03-01T06:26:07;2.15;;;1.95;;
65717;SDS011;52445;52.466;-1.016;2023-03-01T06:28:35;2.63;;;1.88;;
65717;SDS011;52445;52.466;-1.016;2023-03-01T06:31:02;3.20;;;2.75;;
65717;SDS011;52445;52.466;-1.016;2023-03-01T06:33:28;2.00;;;1.75;;
65717;SDS011;52445;52.466;-1.016;2023-03-01T06:35:55;3.05;;;1.83;;
65717;SDS011;52445;52.466;-1.016;2023-03-01T06:38:23;2.72;;;1.95;;
65717;SDS011;52445;52.466;-1.016;2023-03-01T06:40:52;5.55;;;1.77;;
65717;SDS011;52445;52.466;-1.016;2023-03-01T06:43:20;3.55;;;1.73;;
65717;SDS011;52445;52.466;-1.016;2023-03-01T06:45:47;1.80;;;1.63;;
65717;SDS011;52445;52.466;-1.016;2023-03-01T06:48:14;3.25;;;2.28;;
65717;SDS011;52445;52.466;-1.016;2023-03-01T06:50:41;2.42;;;1.83;;
65717;SDS011;52445;52.466;-1.016;2023-03-01T06:53:07;5.32;;;1.95;;
65717;SDS011;52445;52.466;-1.016;2023-03-01T06:55:34;1.48;;;1.38;;
65717;SDS011;52445;52.466;-1.016;2023-03-01T06:58:01;1.98;;;1.35;;
65717;SDS011;52445;52.466;-1.016;2023-03-01T07:00:28;4.70;;;1.65;;
65717;SDS011;52445;52.466;-1.016;2023-03-01T07:02:57;3.05;;;2.10;;
65717;SDS011;52445;52.466;-1.016;2023-03-01T07:05:25;1.90;;;1.73;;
65717;SDS011;52445;52.466;-1.016;2023-03-01T07:07:52;2.28;;;2.15;;
65717;SDS011;52445;52.466;-1.016;2023-03-01T07:10:19;2.60;;;1.95;;
65717;SDS011;52445;52.466;-1.016;2023-03-01T07:12:46;2.35;;;2.05;;
65717;SDS011;52445;52.466;-1.016;2023-03-01T07:15:13;1.77;;;1.67;;
65717;SDS011;52445;52.466;-1.016;2023-03-01T07:17:41;3.38;;;1.45;;
65717;SDS011;52445;52.466;-1.016;2023-03-01T07:20:07;3.22;;;2.35;;
65717;SDS011;52445;52.466;-1.016;2023-03-01T07:22:35;4.03;;;1.77;;
65717;SDS011;52445;52.466;-1.016;2023-03-01T07:25:02;1.85;;;1.25;;
65717;SDS011;52445;52.466;-1.016;2023-03-01T07:27:28;3.88;;;3.00;;
65717;SDS011;52445;52.466;-1.016;2023-03-01T07:29:55;2.13;;;1.70;;
65717;SDS011;52445;52.466;-1.016;2023-03-01T07:32:21;5.53;;;2.03;;
65717;SDS011;52445;52.466;-1.016;2023-03-01T07:34:48;1.75;;;1.20;;
65717;SDS011;52445;52.466;-1.016;2023-03-01T07:37:15;5.18;;;1.85;;
65717;SDS011;52445;52.466;-1.016;2023-03-01T07:39:42;2.95;;;2.75;;
65717;SDS011;52445;52.466;-1.016;2023-03-01T07:42:08;4.97;;;0.95;;
65717;SDS011;52445;52.466;-1.016;2023-03-01T07:44:35;3.78;;;2.45;;
65717;SDS011;52445;52.466;-1.016;2023-03-01T07:47:02;1.65;;;0.50;;
65717;SDS011;52445;52.466;-1.016;2023-03-01T07:49:30;4.40;;;2.20;;
65717;SDS011;52445;52.466;-1.016;2023-03-01T07:51:57;3.17;;;1.88;;
65717;SDS011;52445;52.466;-1.016;2023-03-01T07:54:23;2.65;;;1.98;;
65717;SDS011;52445;52.466;-1.016;2023-03-01T07:56:50;2.05;;;1.42;;
65717;SDS011;52445;52.466;-1.016;2023-03-01T07:59:17;3.05;;;2.22;;
65717;SDS011;52445;52.466;-1.016;2023-03-01T08:01:43;3.92;;;2.60;;
65717;SDS011;52445;52.466;-1.016;2023-03-01T08:04:10;3.15;;;2.83;;
65717;SDS011;52445;52.466;-1.016;2023-03-01T08:06:37;4.40;;;0.75;;
65717;SDS011;52445;52.466;-1.016;2023-03-01T08:09:03;3.28;;;2.55;;
65717;SDS011;52445;52.466;-1.016;2023-03-01T08:11:30;5.55;;;3.25;;
65717;SDS011;52445;52.466;-1.016;2023-03-01T08:13:57;6.45;;;2.33;;
65717;SDS011;52445;52.466;-1.016;2023-03-01T08:16:24;9.15;;;2.67;;
65717;SDS011;52445;52.466;-1.016;2023-03-01T08:18:50;4.15;;;2.92;;
65717;SDS011;52445;52.466;-1.016;2023-03-01T08:21:17;4.05;;;2.55;;
65717;SDS011;52445;52.466;-1.016;2023-03-01T08:23:44;6.68;;;3.47;;
65717;SDS011;52445;52.466;-1.016;2023-03-01T08:28:48;4.30;;;1.50;;
65717;SDS011;52445;52.466;-1.016;2023-03-01T08:31:17;6.22;;;1.80;;
65717;SDS011;52445;52.466;-1.016;2023-03-01T08:33:47;5.15;;;1.63;;
65717;SDS011;52445;52.466;-1.016;2023-03-01T08:36:22;5.13;;;1.85;;
65717;SDS011;52445;52.466;-1.016;2023-03-01T08:38:49;9.02;;;2.20;;
65717;SDS011;52445;52.466;-1.016;2023-03-01T08:41:16;6.55;;;1.77;;
65717;SDS011;52445;52.466;-1.016;2023-03-01T08:43:43;5.07;;;1.90;;
65717;SDS011;52445;52.466;-1.016;2023-03-01T08:46:10;6.43;;;2.30;;
65717;SDS011;52445;52.466;-1.016;2023-03-01T08:48:37;5.63;;;1.73;;
65717;SDS011;52445;52.466;-1.016;2023-03-01T08:51:08;6.30;;;1.52;;
65717;SDS011;52445;52.466;-1.016;2023-03-01T08:53:45;7.32;;;2.10;;
65717;SDS011;52445;52.466;-1.016;2023-03-01T08:56:13;11.98;;;2.58;;
65717;SDS011;52445;52.466;-1.016;2023-03-01T08:58:43;4.90;;;1.77;;
65717;SDS011;52445;52.466;-1.016;2023-03-01T09:01:11;5.70;;;2.08;;
65717;SDS011;52445;52.466;-1.016;2023-03-01T09:03:39;4.72;;;1.95;;
65717;SDS011;52445;52.466;-1.016;2023-03-01T09:06:06;6.15;;;2.25;;
65717;SDS011;52445;52.466;-1.016;2023-03-01T09:08:34;7.30;;;2.85;;
65717;SDS011;52445;52.466;-1.016;2023-03-01T09:11:02;4.35;;;1.63;;
65717;SDS011;52445;52.466;-1.016;2023-03-01T09:13:30;4.97;;;2.33;;
65717;SDS011;52445;52.466;-1.016;2023-03-01T09:15:57;3.05;;;1.33;;
65717;SDS011;52445;52.466;-1.016;2023-03-01T09:18:25;4.70;;;2.33;;
65717;SDS011;52445;52.466;-1.016;2023-03-01T09:20:51;6.63;;;2.13;;
65717;SDS011;52445;52.466;-1.016;2023-03-01T09:23:18;6.10;;;1.90;;
65717;SDS011;52445;52.466;-1.016;2023-03-01T09:25:44;4.05;;;2.03;;
65717;SDS011;52445;52.466;-1.016;2023-03-01T09:28:11;3.92;;;1.77;;
65717;SDS011;52445;52.466;-1.016;2023-03-01T09:30:57;4.30;;;1.70;;
65717;SDS011;52445;52.466;-1.016;2023-03-01T09:33:24;2.50;;;1.30;;
65717;SDS011;52445;52.466;-1.016;2023-03-01T09:36:00;4.07;;;1.42;;
65717;SDS011;52445;52.466;-1.016;2023-03-01T09:38:27;3.85;;;1.80;;
65717;SDS011;52445;52.466;-1.016;2023-03-01T09:40:54;3.88;;;1.30;;
65717;SDS011;52445;52.466;-1.016;2023-03-01T09:43:25;8.15;;;1.70;;
65717;SDS011;52445;52.466;-1.016;2023-03-01T09:46:04;2.78;;;1.25;;
65717;SDS011;52445;52.466;-1.016;2023-03-01T09:48:38;3.63;;;1.60;;
65717;SDS011;52445;52.466;-1.016;2023-03-01T09:51:12;6.43;;;1.90;;
65717;SDS011;52445;52.466;-1.016;2023-03-01T09:53:43;6.72;;;1.75;;
65717;SDS011;52445;52.466;-1.016;2023-03-01T09:56:19;7.07;;;1.85;;
65717;SDS011;52445;52.466;-1.016;2023-03-01T10:06:47;2.85;;;1.83;;
65717;SDS011;52445;52.466;-1.016;2023-03-01T10:09:24;4.07;;;1.90;;
65717;SDS011;52445;52.466;-1.016;2023-03-01T10:11:52;4.40;;;2.45;;
65717;SDS011;52445;52.466;-1.016;2023-03-01T10:14:31;4.43;;;1.88;;
65717;SDS011;52445;52.466;-1.016;2023-03-01T10:17:03;5.15;;;2.92;;
65717;SDS011;52445;52.466;-1.016;2023-03-01T10:19:41;3.80;;;1.25;;
65717;SDS011;52445;52.466;-1.016;2023-03-01T10:24:53;5.53;;;1.33;;
65717;SDS011;52445;52.466;-1.016;2023-03-01T10:32:33;4.78;;;1.27;;
65717;SDS011;52445;52.466;-1.016;2023-03-01T10:35:00;5.95;;;1.60;;
65717;SDS011;52445;52.466;-1.016;2023-03-01T10:37:27;4.20;;;1.20;;
65717;SDS011;52445;52.466;-1.016;2023-03-01T10:39:55;2.08;;;1.00;;
65717;SDS011;52445;52.466;-1.016;2023-03-01T10:42:37;2.67;;;1.38;;
65717;SDS011;52445;52.466;-1.016;2023-03-01T10:48:08;2.80;;;0.73;;
65717;SDS011;52445;52.466;-1.016;2023-03-01T10:50:40;3.15;;;0.80;;
65717;SDS011;52445;52.466;-1.016;2023-03-01T10:53:20;2.88;;;1.05;;
65717;SDS011;52445;52.466;-1.016;2023-03-01T10:55:59;1.95;;;0.82;;
65717;SDS011;52445;52.466;-1.016;2023-03-01T10:58:37;2.35;;;1.05;;
65717;SDS011;52445;52.466;-1.016;2023-03-01T11:01:23;4.93;;;1.10;;
65717;SDS011;52445;52.466;-1.016;2023-03-01T11:06:40;4.25;;;1.55;;
65717;SDS011;52445;52.466;-1.016;2023-03-01T11:09:23;3.72;;;1.90;;
65717;SDS011;52445;52.466;-1.016;2023-03-01T11:11:55;3.63;;;2.10;;
65717;SDS011;52445;52.466;-1.016;2023-03-01T11:14:24;5.45;;;2.35;;
65717;SDS011;52445;52.466;-1.016;2023-03-01T11:19:43;3.10;;;2.13;;
65717;SDS011;52445;52.466;-1.016;2023-03-01T11:22:28;2.38;;;2.05;;
65717;SDS011;52445;52.466;-1.016;2023-03-01T11:24:56;3.10;;;1.60;;
65717;SDS011;52445;52.466;-1.016;2023-03-01T11:27:38;3.00;;;2.42;;
65717;SDS011;52445;52.466;-1.016;2023-03-01T11:30:15;2.55;;;1.77;;
65717;SDS011;52445;52.466;-1.016;2023-03-01T11:32:53;1.98;;;1.70;;
65717;SDS011;52445;52.466;-1.016;2023-03-01T11:35:27;2.60;;;1.55;;
65717;SDS011;52445;52.466;-1.016;2023-03-01T11:38:02;2.80;;;2.60;;
65717;SDS011;52445;52.466;-1.016;2023-03-01T11:40:52;4.55;;;2.05;;
65717;SDS011;52445;52.466;-1.016;2023-03-01T11:46:11;3.90;;;1.33;;
65717;SDS011;52445;52.466;-1.016;2023-03-01T11:49:19;2.22;;;1.15;;
65717;SDS011;52445;52.466;-1.016;2023-03-01T12:08:47;3.42;;;2.35;;
65717;SDS011;52445;52.466;-1.016;2023-03-01T12:22:31;5.30;;;1.08;;
65717;SDS011;52445;52.466;-1.016;2023-03-01T12:39:22;1.42;;;1.27;;
65717;SDS011;52445;52.466;-1.016;2023-03-01T12:51:09;2.22;;;1.20;;
65717;SDS011;52445;52.466;-1.016;2023-03-01T12:53:41;2.25;;;0.35;;
65717;SDS011;52445;52.466;-1.016;2023-03-01T12:56:13;2.75;;;1.83;;
65717;SDS011;52445;52.466;-1.016;2023-03-01T13:06:39;2.83;;;0.43;;
65717;SDS011;52445;52.466;-1.016;2023-03-01T13:09:25;2.30;;;1.10;;
65717;SDS011;52445;52.466;-1.016;2023-03-01T13:18:04;1.52;;;0.35;;
65717;SDS011;52445;52.466;-1.016;2023-03-01T13:21:00;4.03;;;0.70;;
65717;SDS011;52445;52.466;-1.016;2023-03-01T13:23:30;2.42;;;0.82;;
65717;SDS011;52445;52.466;-1.016;2023-03-01T13:28:40;2.70;;;1.50;;
65717;SDS011;52445;52.466;-1.016;2023-03-01T13:33:58;4.15;;;0.90;;
65717;SDS011;52445;52.466;-1.016;2023-03-01T13:39:18;2.40;;;1.70;;
65717;SDS011;52445;52.466;-1.016;2023-03-01T13:41:58;3.97;;;1.80;;
65717;SDS011;52445;52.466;-1.016;2023-03-01T13:44:29;2.65;;;2.20;;
65717;SDS011;52445;52.466;-1.016;2023-03-01T13:47:03;3.17;;;2.50;;
65717;SDS011;52445;52.466;-1.016;2023-03-01T13:49:47;5.97;;;1.02;;
65717;SDS011;52445;52.466;-1.016;2023-03-01T13:55:02;1.77;;;1.00;;
65717;SDS011;52445;52.466;-1.016;2023-03-01T14:00:01;3.28;;;0.68;;
65717;SDS011;52445;52.466;-1.016;2023-03-01T14:02:31;2.63;;;1.20;;
65717;SDS011;52445;52.466;-1.016;2023-03-01T14:04:59;6.30;;;1.48;;
65717;SDS011;52445;52.466;-1.016;2023-03-01T14:07:27;3.42;;;1.48;;
65717;SDS011;52445;52.466;-1.016;2023-03-01T14:09:57;2.92;;;0.50;;
65717;SDS011;52445;52.466;-1.016;2023-03-01T14:15:20;3.33;;;0.73;;
65717;SDS011;52445;52.466;-1.016;2023-03-01T14:20:45;1.90;;;0.93;;
65717;SDS011;52445;52.466;-1.016;2023-03-01T14:23:18;4.03;;;0.43;;
65717;SDS011;52445;52.466;-1.016;2023-03-01T14:25:51;4.38;;;1.35;;
65717;SDS011;52445;52.466;-1.016;2023-03-01T14:28:21;4.22;;;0.60;;
65717;SDS011;52445;52.466;-1.016;2023-03-01T14:30:53;1.73;;;0.32;;
65717;SDS011;52445;52.466;-1.016;2023-03-01T14:36:00;1.35;;;0.80;;
65717;SDS011;52445;52.466;-1.016;2023-03-01T14:38:30;2.17;;;0.57;;
65717;SDS011;52445;52.466;-1.016;2023-03-01T14:41:15;4.22;;;0.60;;
65717;SDS011;52445;52.466;-1.016;2023-03-01T14:43:45;3.20;;;0.47;;
65717;SDS011;52445;52.466;-1.016;2023-03-01T14:46:19;1.60;;;0.43;;
65717;SDS011;52445;52.466;-1.016;2023-03-01T14:48:49;1.20;;;0.68;;
65717;SDS011;52445;52.466;-1.016;2023-03-01T14:51:17;1.02;;;0.52;;
65717;SDS011;52445;52.466;-1.016;2023-03-01T14:53:44;2.20;;;1.05;;
65717;SDS011;52445;52.466;-1.016;2023-03-01T14:56:16;1.70;;;0.60;;
65717;SDS011;52445;52.466;-1.016;2023-03-01T14:58:43;1.05;;;0.45;;
65717;SDS011;52445;52.466;-1.016;2023-03-01T15:01:12;1.58;;;1.05;;
65717;SDS011;52445;52.466;-1.016;2023-03-01T15:03:41;2.30;;;0.47;;
65717;SDS011;52445;52.466;-1.016;2023-03-01T15:06:10;6.95;;;0.98;;
65717;SDS011;52445;52.466;-1.016;2023-03-01T15:08:42;1.15;;;0.52;;
65717;SDS011;52445;52.466;-1.016;2023-03-01T15:13:48;3.35;;;2.20;;
65717;SDS011;52445;52.466;-1.016;2023-03-01T15:16:16;2.92;;;1.05;;
65717;SDS011;52445;52.466;-1.016;2023-03-01T15:23:51;3.10;;;2.40;;
65717;SDS011;52445;52.466;-1.016;2023-03-01T15:26:22;2.40;;;0.40;;
65717;SDS011;52445;52.466;-1.016;2023-03-01T15:28:59;0.68;;;0.47;;
65717;SDS011;52445;52.466;-1.016;2023-03-01T15:31:28;6.15;;;1.00;;
65717;SDS011;52445;52.466;-1.016;2023-03-01T15:36:58;2.00;;;1.90;;
65717;SDS011;52445;52.466;-1.016;2023-03-01T15:42:07;2.25;;;0.77;;
65717;SDS011;52445;52.466;-1.016;2023-03-01T15:44:37;0.45;;;0.40;;
65717;SDS011;52445;52.466;-1.016;2023-03-01T15:47:26;2.70;;;0.70;;
65717;SDS011;52445;52.466;-1.016;2023-03-01T15:49:55;3.25;;;0.60;;
65717;SDS011;52445;52.466;-1.016;2023-03-01T15:52:26;3.28;;;0.55;;
65717;SDS011;52445;52.466;-1.016;2023-03-01T15:54:56;2.85;;;0.50;;
65717;SDS011;52445;52.466;-1.016;2023-03-01T15:57:25;1.58;;;0.70;;
65717;SDS011;52445;52.466;-1.016;2023-03-01T15:59:52;2.83;;;0.88;;
65717;SDS011;52445;52.466;-1.016;2023-03-01T16:02:18;3.58;;;0.65;;
65717;SDS011;52445;52.466;-1.016;2023-03-01T16:04:47;0.30;;;0.20;;
65717;SDS011;52445;52.466;-1.016;2023-03-01T16:07:15;3.22;;;0.30;;
65717;SDS011;52445;52.466;-1.016;2023-03-01T16:09:42;5.43;;;1.48;;
65717;SDS011;52445;52.466;-1.016;2023-03-01T16:12:14;2.70;;;1.00;;
65717;SDS011;52445;52.466;-1.016;2023-03-01T16:14:42;2.45;;;0.93;;
65717;SDS011;52445;52.466;-1.016;2023-03-01T16:17:08;3.17;;;0.82;;
65717;SDS011;52445;52.466;-1.016;2023-03-01T16:19:37;6.63;;;1.00;;
65717;SDS011;52445;52.466;-1.016;2023-03-01T16:22:04;3.10;;;0.70;;
65717;SDS011;52445;52.466;-1.016;2023-03-01T16:24:31;2.75;;;0.20;;
65717;SDS011;52445;52.466;-1.016;2023-03-01T16:26:57;4.22;;;0.60;;
65717;SDS011;52445;52.466;-1.016;2023-03-01T16:29:24;4.05;;;0.47;;
65717;SDS011;52445;52.466;-1.016;2023-03-01T16:31:51;2.50;;;0.50;;
65717;SDS011;52445;52.466;-1.016;2023-03-01T16:34:18;5.10;;;0.73;;
65717;SDS011;52445;52.466;-1.016;2023-03-01T16:36:46;6.28;;;0.60;;
65717;SDS011;52445;52.466;-1.016;2023-03-01T16:39:15;6.88;;;1.02;;
65717;SDS011;52445;52.466;-1.016;2023-03-01T16:41:42;3.00;;;0.40;;
65717;SDS011;52445;52.466;-1.016;2023-03-01T16:44:09;1.83;;;0.55;;
65717;SDS011;52445;52.466;-1.016;2023-03-01T16:46:35;1.15;;;0.77;;
65717;SDS011;52445;52.466;-1.016;2023-03-01T16:49:02;3.92;;;0.60;;
65717;SDS011;52445;52.466;-1.016;2023-03-01T16:51:29;2.33;;;0.80;;
65717;SDS011;52445;52.466;-1.016;2023-03-01T16:53:56;0.50;;;0.30;;
65717;SDS011;52445;52.466;-1.016;2023-03-01T16:56:23;0.90;;;0.20;;
65717;SDS011;52445;52.466;-1.016;2023-03-01T16:58:49;4.10;;;0.70;;
65717;SDS011;52445;52.466;-1.016;2023-03-01T17:01:18;2.17;;;0.60;;
65717;SDS011;52445;52.466;-1.016;2023-03-01T17:03:46;2.05;;;0.30;;
65717;SDS011;52445;52.466;-1.016;2023-03-01T17:06:16;0.82;;;0.40;;
65717;SDS011;52445;52.466;-1.016;2023-03-01T17:08:44;1.35;;;0.80;;
65717;SDS011;52445;52.466;-1.016;2023-03-01T17:11:12;3.35;;;0.35;;
65717;SDS011;52445;52.466;-1.016;2023-03-01T17:13:41;2.78;;;0.52;;